sensor_id;sensor_type;location;lat;lon;timestamp;temperature;humidity
1830;DHT22;914;48.118;11.600;2023-02-28T00:02:16;0.70;84.10
1830;DHT22;914;48.118;11.600;2023-02-28T00:04:45;0.90;83.90
1830;DHT22;914;48.118;11.600;2023-02-28T00:07:11;0.70;83.70
1830;DHT22;914;48.118;11.600;2023-02-28T00:09:37;0.90;84.50
1830;DHT22;914;48.118;11.600;2023-02-28T00:12:03;1.00;84.20
1830;DHT22;914;48.118;11.600;2023-02-28T00:14:36;0.80;82.90
1830;DHT22;914;48.118;11.600;2023-02-28T00:17:01;1.00;83.20
1830;DHT22;914;48.118;11.600;2023-02-28T00:19:27;1.00;83.20
1830;DHT22;914;48.118;11.600;2023-02-28T00:21:53;0.80;82.80
1830;DHT22;914;48.118;11.600;2023-02-28T00:24:19;0.80;83.60
1830;DHT22;914;48.118;11.600;2023-02-28T00:26:45;0.70;83.90
1830;DHT22;914;48.118;11.600;2023-02-28T00:29:10;0.50;84.50
1830;DHT22;914;48.118;11.600;2023-02-28T00:31:36;0.70;85.10
1830;DHT22;914;48.118;11.600;2023-02-28T00:34:01;1.00;83.60
1830;DHT22;914;48.118;11.600;2023-02-28T00:36:27;0.80;83.10
1830;DHT22;914;48.118;11.600;2023-02-28T00:38:53;0.70;83.50
1830;DHT22;914;48.118;11.600;2023-02-28T00:41:18;0.80;83.60
1830;DHT22;914;48.118;11.600;2023-02-28T00:43:45;0.90;84.40
1830;DHT22;914;48.118;11.600;2023-02-28T00:46:10;1.00;83.80
1830;DHT22;914;48.118;11.600;2023-02-28T00:48:36;0.60;84.20
1830;DHT22;914;48.118;11.600;2023-02-28T00:51:02;0.80;85.60
1830;DHT22;914;48.118;11.600;2023-02-28T00:53:28;0.40;84.20
1830;DHT22;914;48.118;11.600;2023-02-28T00:55:54;0.40;84.80
1830;DHT22;914;48.118;11.600;2023-02-28T00:58:19;0.70;85.00
1830;DHT22;914;48.118;11.600;2023-02-28T01:00:45;0.50;84.50
1830;DHT22;914;48.118;11.600;2023-02-28T01:03:16;0.50;84.80
1830;DHT22;914;48.118;11.600;2023-02-28T01:05:42;0.30;85.30
1830;DHT22;914;48.118;11.600;2023-02-28T01:08:07;0.10;84.80
1830;DHT22;914;48.118;11.600;2023-02-28T01:10:33;0.00;86.00
1830;DHT22;914;48.118;11.600;2023-02-28T01:12:59;0.00;87.00
1830;DHT22;914;48.118;11.600;2023-02-28T01:15:25;0.40;85.90
1830;DHT22;914;48.118;11.600;2023-02-28T01:17:51;0.70;86.10
1830;DHT22;914;48.118;11.600;2023-02-28T01:20:16;0.60;84.60
1830;DHT22;914;48.118;11.600;2023-02-28T01:22:42;0.40;85.80
1830;DHT22;914;48.118;11.600;2023-02-28T01:25:08;0.40;85.30
1830;DHT22;914;48.118;11.600;2023-02-28T01:27:33;0.20;85.60
1830;DHT22;914;48.118;11.600;2023-02-28T01:29:59;0.40;85.80
1830;DHT22;914;48.118;11.600;2023-02-28T01:32:25;0.30;85.80
1830;DHT22;914;48.118;11.600;2023-02-28T01:34:50;0.20;85.30
1830;DHT22;914;48.118;11.600;2023-02-28T01:37:16;0.40;85.70
1830;DHT22;914;48.118;11.600;2023-02-28T01:39:42;0.60;85.20
1830;DHT22;914;48.118;11.600;2023-02-28T01:42:09;-0.20;85.70
1830;DHT22;914;48.118;11.600;2023-02-28T01:47:40;0.10;87.00
1830;DHT22;914;48.118;11.600;2023-02-28T01:50:14;0.20;86.70
1830;DHT22;914;48.118;11.600;2023-02-28T01:52:42;0.50;86.30
1830;DHT22;914;48.118;11.600;2023-02-28T01:55:10;0.60;85.40
1830;DHT22;914;48.118;11.600;2023-02-28T01:57:50;0.40;85.40
1830;DHT22;914;48.118;11.600;2023-02-28T02:00:20;0.40;85.30
1830;DHT22;914;48.118;11.600;2023-02-28T02:02:50;0.20;85.20
1830;DHT22;914;48.118;11.600;2023-02-28T02:05:22;0.10;86.40
1830;DHT22;914;48.118;11.600;2023-02-28T02:07:55;0.00;87.10
1830;DHT22;914;48.118;11.600;2023-02-28T02:15:44;0.00;87.70
1830;DHT22;914;48.118;11.600;2023-02-28T02:18:41;0.20;87.00
1830;DHT22;914;48.118;11.600;2023-02-28T02:27:09;0.10;85.20
1830;DHT22;914;48.118;11.600;2023-02-28T02:38:44;-0.40;89.30
1830;DHT22;914;48.118;11.600;2023-02-28T02:41:15;-0.20;88.30
1830;DHT22;914;48.118;11.600;2023-02-28T02:43:51;-0.10;88.20
1830;DHT22;914;48.118;11.600;2023-02-28T02:46:34;-0.10;88.40
1830;DHT22;914;48.118;11.600;2023-02-28T02:49:05;-0.20;88.00
1830;DHT22;914;48.118;11.600;2023-02-28T02:51:32;-0.40;89.10
1830;DHT22;914;48.118;11.600;2023-02-28T02:56:32;-0.30;89.00
1830;DHT22;914;48.118;11.600;2023-02-28T02:59:06;-0.20;89.40
1830;DHT22;914;48.118;11.600;2023-02-28T03:01:34;-0.10;89.10
1830;DHT22;914;48.118;11.600;2023-02-28T03:04:07;0.20;88.50
1830;DHT22;914;48.118;11.600;2023-02-28T03:06:33;0.20;88.00
1830;DHT22;914;48.118;11.600;2023-02-28T03:09:00;-0.10;86.50
1830;DHT22;914;48.118;11.600;2023-02-28T03:11:26;-0.20;88.30
1830;DHT22;914;48.118;11.600;2023-02-28T03:14:16;-0.20;88.40
1830;DHT22;914;48.118;11.600;2023-02-28T03:19:33;-0.20;88.30
1830;DHT22;914;48.118;11.600;2023-02-28T03:28:09;0.00;88.30
1830;DHT22;914;48.118;11.600;2023-02-28T03:30:23;-0.10;88.00
1830;DHT22;914;48.118;11.600;2023-02-28T03:35:35;-0.80;90.10
1830;DHT22;914;48.118;11.600;2023-02-28T03:38:29;-0.60;91.00
1830;DHT22;914;48.118;11.600;2023-02-28T03:41:19;-0.40;90.20
1830;DHT22;914;48.118;11.600;2023-02-28T03:43:51;-0.50;90.10
1830;DHT22;914;48.118;11.600;2023-02-28T03:46:22;-0.40;90.10
1830;DHT22;914;48.118;11.600;2023-02-28T03:49:04;-0.10;90.00
1830;DHT22;914;48.118;11.600;2023-02-28T03:51:33;-0.10;89.90
1830;DHT22;914;48.118;11.600;2023-02-28T03:54:08;0.20;89.50
1830;DHT22;914;48.118;11.600;2023-02-28T03:56:38;-0.20;89.20
1830;DHT22;914;48.118;11.600;2023-02-28T03:59:10;-0.10;90.00
1830;DHT22;914;48.118;11.600;2023-02-28T04:01:41;0.10;89.30
1830;DHT22;914;48.118;11.600;2023-02-28T04:04:09;-0.30;89.30
1830;DHT22;914;48.118;11.600;2023-02-28T04:06:35;-0.50;90.80
1830;DHT22;914;48.118;11.600;2023-02-28T04:09:02;-0.40;90.50
1830;DHT22;914;48.118;11.600;2023-02-28T04:11:41;-0.60;90.40
1830;DHT22;914;48.118;11.600;2023-02-28T04:14:08;-0.60;90.80
1830;DHT22;914;48.118;11.600;2023-02-28T04:16:36;-0.50;90.90
1830;DHT22;914;48.118;11.600;2023-02-28T04:19:03;-0.40;91.20
1830;DHT22;914;48.118;11.600;2023-02-28T04:21:36;-0.30;90.90
1830;DHT22;914;48.118;11.600;2023-02-28T04:24:02;-0.70;90.80
1830;DHT22;914;48.118;11.600;2023-02-28T04:26:33;-0.60;91.30
1830;DHT22;914;48.118;11.600;2023-02-28T04:29:00;-0.50;91.80
1830;DHT22;914;48.118;11.600;2023-02-28T04:31:25;-0.30;91.40
1830;DHT22;914;48.118;11.600;2023-02-28T04:33:51;-0.20;91.10
1830;DHT22;914;48.118;11.600;2023-02-28T04:36:17;-0.20;90.70
1830;DHT22;914;48.118;11.600;2023-02-28T04:38:44;-0.10;90.60
1830;DHT22;914;48.118;11.600;2023-02-28T04:41:10;-0.20;91.00
1830;DHT22;914;48.118;11.600;2023-02-28T04:43:36;-0.10;91.20
1830;DHT22;914;48.118;11.600;2023-02-28T04:46:03;0.20;90.70
1830;DHT22;914;48.118;11.600;2023-02-28T04:48:31;-0.20;90.20
1830;DHT22;914;48.118;11.600;2023-02-28T04:51:01;0.00;91.30
1830;DHT22;914;48.118;11.600;2023-02-28T04:53:28;-0.20;91.20
1830;DHT22;914;48.118;11.600;2023-02-28T04:55:55;0.00;91.50
1830;DHT22;914;48.118;11.600;2023-02-28T04:58:21;-0.10;91.60
1830;DHT22;914;48.118;11.600;2023-02-28T05:00:54;-0.20;91.50
1830;DHT22;914;48.118;11.600;2023-02-28T05:03:20;-0.30;91.70
1830;DHT22;914;48.118;11.600;2023-02-28T05:05:47;-0.20;92.30
1830;DHT22;914;48.118;11.600;2023-02-28T05:08:13;0.10;91.70
1830;DHT22;914;48.118;11.600;2023-02-28T05:10:39;0.50;91.10
1830;DHT22;914;48.118;11.600;2023-02-28T05:13:05;0.40;90.70
1830;DHT22;914;48.118;11.600;2023-02-28T05:15:30;0.40;90.50
1830;DHT22;914;48.118;11.600;2023-02-28T05:17:56;-0.10;90.90
1830;DHT22;914;48.118;11.600;2023-02-28T05:20:22;-0.10;91.70
1830;DHT22;914;48.118;11.600;2023-02-28T05:22:49;-0.10;91.90
1830;DHT22;914;48.118;11.600;2023-02-28T05:25:19;-0.20;91.50
1830;DHT22;914;48.118;11.600;2023-02-28T05:27:47;0.00;92.50
1830;DHT22;914;48.118;11.600;2023-02-28T05:30:13;0.20;91.90
1830;DHT22;914;48.118;11.600;2023-02-28T05:32:39;0.20;91.60
1830;DHT22;914;48.118;11.600;2023-02-28T05:35:10;0.20;91.60
1830;DHT22;914;48.118;11.600;2023-02-28T05:37:37;0.50;91.30
1830;DHT22;914;48.118;11.600;2023-02-28T05:40:04;0.50;91.50
1830;DHT22;914;48.118;11.600;2023-02-28T05:42:37;0.30;91.00
1830;DHT22;914;48.118;11.600;2023-02-28T05:45:04;0.40;91.10
1830;DHT22;914;48.118;11.600;2023-02-28T05:47:30;0.40;91.20
1830;DHT22;914;48.118;11.600;2023-02-28T05:49:57;0.40;91.40
1830;DHT22;914;48.118;11.600;2023-02-28T05:52:22;0.10;92.30
1830;DHT22;914;48.118;11.600;2023-02-28T05:54:48;0.10;92.30
1830;DHT22;914;48.118;11.600;2023-02-28T05:57:14;-0.10;91.70
1830;DHT22;914;48.118;11.600;2023-02-28T05:59:40;0.00;91.50
1830;DHT22;914;48.118;11.600;2023-02-28T06:02:10;-0.20;92.50
1830;DHT22;914;48.118;11.600;2023-02-28T06:04:37;-0.20;92.40
1830;DHT22;914;48.118;11.600;2023-02-28T06:07:02;-0.10;92.60
1830;DHT22;914;48.118;11.600;2023-02-28T06:09:28;0.10;92.70
1830;DHT22;914;48.118;11.600;2023-02-28T06:11:56;0.20;91.50
1830;DHT22;914;48.118;11.600;2023-02-28T06:14:22;0.20;91.30
1830;DHT22;914;48.118;11.600;2023-02-28T06:16:48;0.20;91.30
1830;DHT22;914;48.118;11.600;2023-02-28T06:19:14;0.00;91.90
1830;DHT22;914;48.118;11.600;2023-02-28T06:21:40;0.30;91.70
1830;DHT22;914;48.118;11.600;2023-02-28T06:24:06;0.20;91.30
1830;DHT22;914;48.118;11.600;2023-02-28T06:26:32;0.20;91.50
1830;DHT22;914;48.118;11.600;2023-02-28T06:28:58;0.20;91.70
1830;DHT22;914;48.118;11.600;2023-02-28T06:31:23;0.50;91.70
1830;DHT22;914;48.118;11.600;2023-02-28T06:33:51;0.10;91.10
1830;DHT22;914;48.118;11.600;2023-02-28T06:36:17;0.30;91.40
1830;DHT22;914;48.118;11.600;2023-02-28T06:38:44;0.30;91.20
1830;DHT22;914;48.118;11.600;2023-02-28T06:41:10;0.30;91.10
1830;DHT22;914;48.118;11.600;2023-02-28T06:43:39;0.50;91.30
1830;DHT22;914;48.118;11.600;2023-02-28T06:46:07;0.40;91.30
1830;DHT22;914;48.118;11.600;2023-02-28T06:48:33;0.40;91.40
1830;DHT22;914;48.118;11.600;2023-02-28T06:51:10;0.20;91.50
1830;DHT22;914;48.118;11.600;2023-02-28T06:53:36;0.20;91.40
1830;DHT22;914;48.118;11.600;2023-02-28T06:56:13;0.30;91.70
1830;DHT22;914;48.118;11.600;2023-02-28T06:58:39;0.50;91.20
1830;DHT22;914;48.118;11.600;2023-02-28T07:01:07;0.70;91.00
1830;DHT22;914;48.118;11.600;2023-02-28T07:03:35;0.40;91.20
1830;DHT22;914;48.118;11.600;2023-02-28T07:06:00;0.30;91.30
1830;DHT22;914;48.118;11.600;2023-02-28T07:08:26;0.30;91.40
1830;DHT22;914;48.118;11.600;2023-02-28T07:10:56;0.30;91.20
1830;DHT22;914;48.118;11.600;2023-02-28T07:13:22;0.20;91.60
1830;DHT22;914;48.118;11.600;2023-02-28T07:15:59;0.20;91.40
1830;DHT22;914;48.118;11.600;2023-02-28T07:18:25;0.10;91.90
1830;DHT22;914;48.118;11.600;2023-02-28T07:20:52;0.20;92.10
1830;DHT22;914;48.118;11.600;2023-02-28T07:23:18;0.40;91.90
1830;DHT22;914;48.118;11.600;2023-02-28T07:25:44;0.60;91.70
1830;DHT22;914;48.118;11.600;2023-02-28T07:28:11;0.20;90.80
1830;DHT22;914;48.118;11.600;2023-02-28T07:30:37;0.20;92.00
1830;DHT22;914;48.118;11.600;2023-02-28T07:33:02;0.30;91.80
1830;DHT22;914;48.118;11.600;2023-02-28T07:35:29;0.40;91.70
1830;DHT22;914;48.118;11.600;2023-02-28T07:37:57;0.30;91.50
1830;DHT22;914;48.118;11.600;2023-02-28T07:40:23;0.50;91.70
1830;DHT22;914;48.118;11.600;2023-02-28T07:42:49;0.30;91.40
1830;DHT22;914;48.118;11.600;2023-02-28T07:45:14;0.40;91.70
1830;DHT22;914;48.118;11.600;2023-02-28T07:47:41;0.70;91.40
1830;DHT22;914;48.118;11.600;2023-02-28T07:50:10;0.90;90.90
1830;DHT22;914;48.118;11.600;2023-02-28T07:52:37;0.70;90.90
1830;DHT22;914;48.118;11.600;2023-02-28T07:55:04;0.80;91.10
1830;DHT22;914;48.118;11.600;2023-02-28T07:57:30;0.50;90.90
1830;DHT22;914;48.118;11.600;2023-02-28T07:59:56;0.50;91.10
1830;DHT22;914;48.118;11.600;2023-02-28T08:02:22;0.60;91.50
1830;DHT22;914;48.118;11.600;2023-02-28T08:04:47;0.70;91.50
1830;DHT22;914;48.118;11.600;2023-02-28T08:07:14;0.80;91.10
1830;DHT22;914;48.118;11.600;2023-02-28T08:09:40;0.70;90.70
1830;DHT22;914;48.118;11.600;2023-02-28T08:12:08;0.70;91.20
1830;DHT22;914;48.118;11.600;2023-02-28T08:14:34;0.50;91.10
1830;DHT22;914;48.118;11.600;2023-02-28T08:17:00;0.70;91.50
1830;DHT22;914;48.118;11.600;2023-02-28T08:19:26;0.90;91.30
1830;DHT22;914;48.118;11.600;2023-02-28T08:21:52;0.90;90.90
1830;DHT22;914;48.118;11.600;2023-02-28T08:24:17;0.60;90.70
1830;DHT22;914;48.118;11.600;2023-02-28T08:26:43;0.40;91.60
1830;DHT22;914;48.118;11.600;2023-02-28T08:29:08;0.80;91.50
1830;DHT22;914;48.118;11.600;2023-02-28T08:31:34;0.90;91.10
1830;DHT22;914;48.118;11.600;2023-02-28T08:34:06;1.10;90.90
1830;DHT22;914;48.118;11.600;2023-02-28T08:36:32;1.00;90.90
1830;DHT22;914;48.118;11.600;2023-02-28T08:38:58;1.10;90.90
1830;DHT22;914;48.118;11.600;2023-02-28T08:41:25;1.30;90.20
1830;DHT22;914;48.118;11.600;2023-02-28T08:43:51;1.20;90.00
1830;DHT22;914;48.118;11.600;2023-02-28T08:46:17;1.00;90.50
1830;DHT22;914;48.118;11.600;2023-02-28T08:48:44;0.60;90.00
1830;DHT22;914;48.118;11.600;2023-02-28T08:51:14;1.00;90.90
1830;DHT22;914;48.118;11.600;2023-02-28T08:53:44;1.40;91.10
1830;DHT22;914;48.118;11.600;2023-02-28T08:56:15;1.40;90.00
1830;DHT22;914;48.118;11.600;2023-02-28T08:58:42;1.60;90.10
1830;DHT22;914;48.118;11.600;2023-02-28T09:01:12;1.60;89.10
1830;DHT22;914;48.118;11.600;2023-02-28T09:03:38;1.70;89.40
1830;DHT22;914;48.118;11.600;2023-02-28T09:06:04;1.50;89.40
1830;DHT22;914;48.118;11.600;2023-02-28T09:08:30;1.50;89.60
1830;DHT22;914;48.118;11.600;2023-02-28T09:10:57;1.50;90.00
1830;DHT22;914;48.118;11.600;2023-02-28T09:13:27;2.00;87.70
1830;DHT22;914;48.118;11.600;2023-02-28T09:15:53;2.10;86.80
1830;DHT22;914;48.118;11.600;2023-02-28T09:18:20;1.60;87.10
1830;DHT22;914;48.118;11.600;2023-02-28T09:20:46;1.60;89.70
1830;DHT22;914;48.118;11.600;2023-02-28T09:23:12;1.50;89.30
1830;DHT22;914;48.118;11.600;2023-02-28T09:25:44;1.60;89.40
1830;DHT22;914;48.118;11.600;2023-02-28T09:28:10;1.60;88.90
1830;DHT22;914;48.118;11.600;2023-02-28T09:30:36;1.70;88.20
1830;DHT22;914;48.118;11.600;2023-02-28T09:33:02;1.50;89.90
1830;DHT22;914;48.118;11.600;2023-02-28T09:35:28;1.90;89.50
1830;DHT22;914;48.118;11.600;2023-02-28T09:37:56;2.10;88.00
1830;DHT22;914;48.118;11.600;2023-02-28T09:40:24;2.10;87.50
1830;DHT22;914;48.118;11.600;2023-02-28T09:42:52;2.20;87.40
1830;DHT22;914;48.118;11.600;2023-02-28T09:47:48;1.90;89.30
1830;DHT22;914;48.118;11.600;2023-02-28T09:50:36;2.30;88.40
1830;DHT22;914;48.118;11.600;2023-02-28T09:53:10;2.50;86.00
1830;DHT22;914;48.118;11.600;2023-02-28T09:55:46;2.20;85.20
1830;DHT22;914;48.118;11.600;2023-02-28T09:58:23;0.90;87.70
1830;DHT22;914;48.118;11.600;2023-02-28T10:01:17;1.00;90.50
1830;DHT22;914;48.118;11.600;2023-02-28T10:04:00;1.60;90.20
1830;DHT22;914;48.118;11.600;2023-02-28T10:06:36;1.30;90.20
1830;DHT22;914;48.118;11.600;2023-02-28T10:09:22;1.00;89.00
1830;DHT22;914;48.118;11.600;2023-02-28T10:11:52;1.20;90.70
1830;DHT22;914;48.118;11.600;2023-02-28T10:14:30;1.30;90.40
1830;DHT22;914;48.118;11.600;2023-02-28T10:17:10;1.50;90.30
1830;DHT22;914;48.118;11.600;2023-02-28T10:19:56;1.50;89.80
1830;DHT22;914;48.118;11.600;2023-02-28T10:25:28;2.30;88.70
1830;DHT22;914;48.118;11.600;2023-02-28T10:28:00;2.30;87.40
1830;DHT22;914;48.118;11.600;2023-02-28T10:30:27;2.50;87.30
1830;DHT22;914;48.118;11.600;2023-02-28T10:32:53;2.50;86.30
1830;DHT22;914;48.118;11.600;2023-02-28T10:35:24;2.40;85.70
1830;DHT22;914;48.118;11.600;2023-02-28T10:37:55;2.40;86.40
1830;DHT22;914;48.118;11.600;2023-02-28T10:45:26;3.00;84.00
1830;DHT22;914;48.118;11.600;2023-02-28T10:48:02;3.00;84.60
1830;DHT22;914;48.118;11.600;2023-02-28T10:50:42;3.70;84.20
1830;DHT22;914;48.118;11.600;2023-02-28T11:01:26;3.00;82.60
1830;DHT22;914;48.118;11.600;2023-02-28T11:03:59;3.50;83.50
1830;DHT22;914;48.118;11.600;2023-02-28T11:06:33;3.20;82.30
1830;DHT22;914;48.118;11.600;2023-02-28T11:09:03;3.20;82.30
1830;DHT22;914;48.118;11.600;2023-02-28T11:11:41;3.40;82.00
1830;DHT22;914;48.118;11.600;2023-02-28T11:14:19;3.50;82.50
1830;DHT22;914;48.118;11.600;2023-02-28T11:16:46;3.30;83.20
1830;DHT22;914;48.118;11.600;2023-02-28T11:19:39;3.10;83.80
1830;DHT22;914;48.118;11.600;2023-02-28T11:22:06;3.10;82.90
1830;DHT22;914;48.118;11.600;2023-02-28T11:24:41;3.30;83.80
1830;DHT22;914;48.118;11.600;2023-02-28T11:29:57;3.70;83.90
1830;DHT22;914;48.118;11.600;2023-02-28T11:32:25;3.70;83.90
1830;DHT22;914;48.118;11.600;2023-02-28T11:35:14;3.70;82.10
1830;DHT22;914;48.118;11.600;2023-02-28T11:37:42;4.80;83.80
1830;DHT22;914;48.118;11.600;2023-02-28T11:40:15;4.40;80.10
1830;DHT22;914;48.118;11.600;2023-02-28T11:43:09;4.50;80.70
1830;DHT22;914;48.118;11.600;2023-02-28T11:51:05;5.10;80.40
1830;DHT22;914;48.118;11.600;2023-02-28T11:53:49;5.00;80.30
1830;DHT22;914;48.118;11.600;2023-02-28T11:56:36;5.00;80.20
1830;DHT22;914;48.118;11.600;2023-02-28T12:05:08;5.80;79.40
1830;DHT22;914;48.118;11.600;2023-02-28T12:07:58;5.90;78.70
1830;DHT22;914;48.118;11.600;2023-02-28T12:10:29;6.20;78.20
1830;DHT22;914;48.118;11.600;2023-02-28T12:13:07;5.90;76.10
1830;DHT22;914;48.118;11.600;2023-02-28T12:18:26;6.60;75.70
1830;DHT22;914;48.118;11.600;2023-02-28T12:29:21;6.80;75.60
1830;DHT22;914;48.118;11.600;2023-02-28T12:31:53;7.30;75.20
1830;DHT22;914;48.118;11.600;2023-02-28T12:34:43;7.80;72.20
1830;DHT22;914;48.118;11.600;2023-02-28T12:37:28;7.80;71.50
1830;DHT22;914;48.118;11.600;2023-02-28T12:40:01;7.80;73.00
1830;DHT22;914;48.118;11.600;2023-02-28T12:42:33;8.00;71.10
1830;DHT22;914;48.118;11.600;2023-02-28T12:45:21;8.50;70.70
1830;DHT22;914;48.118;11.600;2023-02-28T12:47:56;8.10;69.10
1830;DHT22;914;48.118;11.600;2023-02-28T12:50:23;8.40;70.50
1830;DHT22;914;48.118;11.600;2023-02-28T13:00:50;5.50;76.10
1830;DHT22;914;48.118;11.600;2023-02-28T13:03:41;6.10;76.20
1830;DHT22;914;48.118;11.600;2023-02-28T13:11:48;7.90;71.00
1830;DHT22;914;48.118;11.600;2023-02-28T13:19:56;7.90;68.50
1830;DHT22;914;48.118;11.600;2023-02-28T13:24:55;5.40;68.70
1830;DHT22;914;48.118;11.600;2023-02-28T13:29:51;5.30;73.30
1830;DHT22;914;48.118;11.600;2023-02-28T13:32:18;6.30;76.10
1830;DHT22;914;48.118;11.600;2023-02-28T13:37:35;7.60;71.90
1830;DHT22;914;48.118;11.600;2023-02-28T13:42:47;7.10;70.50
1830;DHT22;914;48.118;11.600;2023-02-28T13:45:24;7.10;71.30
1830;DHT22;914;48.118;11.600;2023-02-28T13:48:01;6.00;71.30
1830;DHT22;914;48.118;11.600;2023-02-28T13:50:33;6.50;73.30
1830;DHT22;914;48.118;11.600;2023-02-28T13:58:53;6.50;70.40
1830;DHT22;914;48.118;11.600;2023-02-28T14:06:53;5.30;75.40
1830;DHT22;914;48.118;11.600;2023-02-28T14:15:18;6.30;75.60
1830;DHT22;914;48.118;11.600;2023-02-28T14:17:55;6.00;73.30
1830;DHT22;914;48.118;11.600;2023-02-28T14:20:22;6.40;75.10
1830;DHT22;914;48.118;11.600;2023-02-28T14:34:47;6.70;72.40
1830;DHT22;914;48.118;11.600;2023-02-28T14:37:20;6.90;72.00
1830;DHT22;914;48.118;11.600;2023-02-28T14:39:48;7.20;72.20
1830;DHT22;914;48.118;11.600;2023-02-28T14:42:59;7.20;73.30
1830;DHT22;914;48.118;11.600;2023-02-28T14:45:28;7.00;71.70
1830;DHT22;914;48.118;11.600;2023-02-28T14:47:55;6.90;71.60
1830;DHT22;914;48.118;11.600;2023-02-28T14:50:24;6.40;71.50
1830;DHT22;914;48.118;11.600;2023-02-28T14:52:53;6.60;72.90
1830;DHT22;914;48.118;11.600;2023-02-28T14:55:24;6.40;72.30
1830;DHT22;914;48.118;11.600;2023-02-28T14:58:05;6.60;72.30
1830;DHT22;914;48.118;11.600;2023-02-28T15:00:39;6.70;72.70
1830;DHT22;914;48.118;11.600;2023-02-28T15:03:30;6.60;72.20
1830;DHT22;914;48.118;11.600;2023-02-28T15:06:02;6.80;72.90
1830;DHT22;914;48.118;11.600;2023-02-28T15:08:29;6.30;72.80
1830;DHT22;914;48.118;11.600;2023-02-28T15:11:20;6.30;73.50
1830;DHT22;914;48.118;11.600;2023-02-28T15:13:53;6.50;74.00
1830;DHT22;914;48.118;11.600;2023-02-28T15:16:24;6.90;73.30
1830;DHT22;914;48.118;11.600;2023-02-28T15:18:53;7.00;73.20
1830;DHT22;914;48.118;11.600;2023-02-28T15:21:26;7.00;72.90
1830;DHT22;914;48.118;11.600;2023-02-28T15:24:28;6.30;72.90
1830;DHT22;914;48.118;11.600;2023-02-28T15:27:00;6.10;73.80
1830;DHT22;914;48.118;11.600;2023-02-28T15:29:29;6.20;74.20
1830;DHT22;914;48.118;11.600;2023-02-28T15:32:05;6.40;74.40
1830;DHT22;914;48.118;11.600;2023-02-28T15:37:02;6.50;74.10
1830;DHT22;914;48.118;11.600;2023-02-28T15:39:41;6.00;73.30
1830;DHT22;914;48.118;11.600;2023-02-28T15:42:19;6.00;74.70
1830;DHT22;914;48.118;11.600;2023-02-28T15:44:45;6.00;74.60
1830;DHT22;914;48.118;11.600;2023-02-28T15:47:27;5.80;74.30
1830;DHT22;914;48.118;11.600;2023-02-28T15:49:59;5.70;75.10
1830;DHT22;914;48.118;11.600;2023-02-28T15:52:37;5.90;75.00
1830;DHT22;914;48.118;11.600;2023-02-28T15:55:27;6.00;74.30
1830;DHT22;914;48.118;11.600;2023-02-28T15:57:56;5.70;75.00
1830;DHT22;914;48.118;11.600;2023-02-28T16:00:30;5.40;76.30
1830;DHT22;914;48.118;11.600;2023-02-28T16:02:58;5.70;76.00
1830;DHT22;914;48.118;11.600;2023-02-28T16:05:25;5.90;75.80
1830;DHT22;914;48.118;11.600;2023-02-28T16:08:14;6.00;74.90
1830;DHT22;914;48.118;11.600;2023-02-28T16:10:40;6.00;74.90
1830;DHT22;914;48.118;11.600;2023-02-28T16:13:08;5.80;74.80
1830;DHT22;914;48.118;11.600;2023-02-28T16:15:42;5.60;76.10
1830;DHT22;914;48.118;11.600;2023-02-28T16:18:10;5.50;76.20
1830;DHT22;914;48.118;11.600;2023-02-28T16:20:38;5.40;76.50
1830;DHT22;914;48.118;11.600;2023-02-28T16:23:04;5.50;77.20
1830;DHT22;914;48.118;11.600;2023-02-28T16:25:36;5.60;76.90
1830;DHT22;914;48.118;11.600;2023-02-28T16:28:03;5.40;76.30
1830;DHT22;914;48.118;11.600;2023-02-28T16:30:29;5.60;76.80
1830;DHT22;914;48.118;11.600;2023-02-28T16:32:58;5.40;77.00
1830;DHT22;914;48.118;11.600;2023-02-28T16:35:25;5.30;77.00
1830;DHT22;914;48.118;11.600;2023-02-28T16:37:52;5.30;77.60
1830;DHT22;914;48.118;11.600;2023-02-28T16:40:23;5.20;77.40
1830;DHT22;914;48.118;11.600;2023-02-28T16:42:52;5.20;77.60
1830;DHT22;914;48.118;11.600;2023-02-28T16:45:24;5.20;77.80
1830;DHT22;914;48.118;11.600;2023-02-28T16:47:52;5.50;77.40
1830;DHT22;914;48.118;11.600;2023-02-28T16:50:22;5.40;76.50
1830;DHT22;914;48.118;11.600;2023-02-28T16:52:48;5.50;78.20
1830;DHT22;914;48.118;11.600;2023-02-28T16:55:15;5.40;78.60
1830;DHT22;914;48.118;11.600;2023-02-28T16:57:43;5.30;78.60
1830;DHT22;914;48.118;11.600;2023-02-28T17:00:13;5.40;78.90
1830;DHT22;914;48.118;11.600;2023-02-28T17:02:39;5.30;78.60
1830;DHT22;914;48.118;11.600;2023-02-28T17:05:05;5.40;78.70
1830;DHT22;914;48.118;11.600;2023-02-28T17:07:32;5.30;78.60
1830;DHT22;914;48.118;11.600;2023-02-28T17:09:58;5.20;78.20
1830;DHT22;914;48.118;11.600;2023-02-28T17:12:24;5.10;79.00
1830;DHT22;914;48.118;11.600;2023-02-28T17:14:50;5.10;79.30
1830;DHT22;914;48.118;11.600;2023-02-28T17:17:20;5.20;79.00
1830;DHT22;914;48.118;11.600;2023-02-28T17:19:46;5.10;78.70
1830;DHT22;914;48.118;11.600;2023-02-28T17:22:12;5.20;79.10
1830;DHT22;914;48.118;11.600;2023-02-28T17:24:37;5.30;80.00
1830;DHT22;914;48.118;11.600;2023-02-28T17:27:05;5.10;79.30
1830;DHT22;914;48.118;11.600;2023-02-28T17:29:33;5.00;79.80
1830;DHT22;914;48.118;11.600;2023-02-28T17:32:00;5.10;80.00
1830;DHT22;914;48.118;11.600;2023-02-28T17:34:26;4.90;80.00
1830;DHT22;914;48.118;11.600;2023-02-28T17:36:52;5.00;80.50
1830;DHT22;914;48.118;11.600;2023-02-28T17:39:18;4.90;80.10
1830;DHT22;914;48.118;11.600;2023-02-28T17:41:55;4.90;80.60
1830;DHT22;914;48.118;11.600;2023-02-28T17:44:22;4.80;81.20
1830;DHT22;914;48.118;11.600;2023-02-28T17:46:49;4.90;81.40
1830;DHT22;914;48.118;11.600;2023-02-28T17:49:16;5.00;80.60
1830;DHT22;914;48.118;11.600;2023-02-28T17:51:41;4.90;80.80
1830;DHT22;914;48.118;11.600;2023-02-28T17:54:07;4.90;81.20
1830;DHT22;914;48.118;11.600;2023-02-28T17:56:33;4.90;81.60
1830;DHT22;914;48.118;11.600;2023-02-28T17:59:00;4.90;81.70
1830;DHT22;914;48.118;11.600;2023-02-28T18:01:26;4.90;81.90
1830;DHT22;914;48.118;11.600;2023-02-28T18:03:53;4.80;82.10
1830;DHT22;914;48.118;11.600;2023-02-28T18:06:25;4.80;82.30
1830;DHT22;914;48.118;11.600;2023-02-28T18:08:53;4.80;82.60
1830;DHT22;914;48.118;11.600;2023-02-28T18:11:20;4.80;82.60
1830;DHT22;914;48.118;11.600;2023-02-28T18:13:53;4.80;82.90
1830;DHT22;914;48.118;11.600;2023-02-28T18:16:24;4.80;83.30
1830;DHT22;914;48.118;11.600;2023-02-28T18:18:55;4.80;83.50
1830;DHT22;914;48.118;11.600;2023-02-28T18:21:21;4.70;83.30
1830;DHT22;914;48.118;11.600;2023-02-28T18:23:48;4.70;83.50
1830;DHT22;914;48.118;11.600;2023-02-28T18:26:16;4.80;83.60
1830;DHT22;914;48.118;11.600;2023-02-28T18:28:43;4.80;83.50
1830;DHT22;914;48.118;11.600;2023-02-28T18:31:12;4.70;83.50
1830;DHT22;914;48.118;11.600;2023-02-28T18:33:43;4.70;83.90
1830;DHT22;914;48.118;11.600;2023-02-28T18:36:10;4.70;83.70
1830;DHT22;914;48.118;11.600;2023-02-28T18:38:38;4.70;84.00
1830;DHT22;914;48.118;11.600;2023-02-28T18:41:06;4.80;83.80
1830;DHT22;914;48.118;11.600;2023-02-28T18:43:33;4.70;83.50
1830;DHT22;914;48.118;11.600;2023-02-28T18:46:07;4.60;83.60
1830;DHT22;914;48.118;11.600;2023-02-28T18:48:35;4.70;83.70
1830;DHT22;914;48.118;11.600;2023-02-28T18:51:11;4.80;83.60
1830;DHT22;914;48.118;11.600;2023-02-28T18:53:42;4.80;83.20
1830;DHT22;914;48.118;11.600;2023-02-28T18:56:11;5.00;83.30